createdAt,value
2019-06-26T00:01:29.300Z,28.56
2019-06-26T00:03:55.888Z,28.80
2019-06-26T00:06:22.909Z,28.93
2019-06-26T00:08:49.943Z,28.92
2019-06-26T00:11:16.586Z,28.83
2019-06-26T00:13:43.152Z,28.47
2019-06-26T00:16:09.762Z,28.51
2019-06-26T00:18:36.390Z,28.79
2019-06-26T00:21:03.303Z,28.81
2019-06-26T00:23:30.094Z,28.79
2019-06-26T00:25:56.782Z,28.58
2019-06-26T00:28:23.442Z,28.58
2019-06-26T00:30:50.010Z,28.39
2019-06-26T00:33:16.870Z,28.33
2019-06-26T00:35:43.771Z,28.42
2019-06-26T00:38:10.404Z,28.50
2019-06-26T00:40:37.392Z,28.56
2019-06-26T00:43:04.104Z,28.43
2019-06-26T00:45:30.839Z,28.17
2019-06-26T00:47:57.585Z,28.01
2019-06-26T00:50:24.343Z,28.04
2019-06-26T00:52:50.995Z,28.02
2019-06-26T00:55:17.842Z,27.97
2019-06-26T00:57:44.406Z,27.88
2019-06-26T01:00:12.837Z,27.37
2019-06-26T01:02:39.859Z,28.12
2019-06-26T01:05:09.139Z,27.89
2019-06-26T01:07:35.919Z,28.10
2019-06-26T01:10:03.279Z,27.53
2019-06-26T01:12:30.041Z,27.59
2019-06-26T01:14:56.728Z,28.24
2019-06-26T01:17:23.432Z,28.48
2019-06-26T01:19:50.480Z,28.03
2019-06-26T01:22:17.059Z,27.85
2019-06-26T01:24:43.643Z,27.90
2019-06-26T01:27:10.214Z,27.63
2019-06-26T01:29:36.829Z,27.71
2019-06-26T01:32:03.814Z,27.89
2019-06-26T01:34:30.435Z,28.02
2019-06-26T01:36:57.061Z,28.08
2019-06-26T01:39:26.754Z,28.01
2019-06-26T01:41:54.358Z,27.99
2019-06-26T01:44:20.991Z,27.85
2019-06-26T01:46:47.607Z,28.05
2019-06-26T01:49:14.287Z,27.91
2019-06-26T01:51:40.900Z,28.25
2019-06-26T01:54:07.496Z,27.83
2019-06-26T01:56:35.474Z,27.93
2019-06-26T01:59:06.458Z,27.83
2019-06-26T02:01:33.055Z,27.95
2019-06-26T02:03:59.747Z,27.61
2019-06-26T02:06:26.359Z,27.59
2019-06-26T02:08:53.301Z,27.49
2019-06-26T02:11:19.962Z,27.80
2019-06-26T02:13:46.549Z,27.95
2019-06-26T02:16:13.111Z,27.52
2019-06-26T02:18:53.115Z,27.58
2019-06-26T02:21:19.894Z,27.55
2019-06-26T02:23:46.533Z,27.61
2019-06-26T02:26:13.113Z,27.65
2019-06-26T02:28:40.021Z,27.41
2019-06-26T02:31:06.624Z,27.51
2019-06-26T02:33:33.316Z,27.68
2019-06-26T02:36:00.199Z,27.59
2019-06-26T02:38:27.893Z,27.49
2019-06-26T02:40:54.696Z,27.47
2019-06-26T02:43:21.425Z,27.49
2019-06-26T02:45:48.100Z,27.38
2019-06-26T02:48:14.677Z,27.52
2019-06-26T02:50:41.676Z,27.34
2019-06-26T02:53:09.250Z,27.28
2019-06-26T02:55:35.891Z,27.28
2019-06-26T02:58:02.562Z,27.36
2019-06-26T03:00:29.435Z,27.47
2019-06-26T03:02:56.422Z,27.39
2019-06-26T03:05:23.104Z,27.03
2019-06-26T03:07:49.721Z,27.27
2019-06-26T03:10:16.408Z,27.50
2019-06-26T03:12:43.377Z,27.02
2019-06-26T03:15:10.116Z,27.46
2019-06-26T03:17:36.793Z,27.19
2019-06-26T03:20:03.971Z,27.35
2019-06-26T03:22:30.650Z,27.55
2019-06-26T03:24:57.261Z,27.35
2019-06-26T03:27:26.291Z,27.48
2019-06-26T03:29:53.165Z,27.58
2019-06-26T03:32:19.786Z,27.41
2019-06-26T03:34:46.804Z,27.78
2019-06-26T03:37:15.661Z,27.83
2019-06-26T03:39:42.511Z,27.94
2019-06-26T03:42:09.162Z,28.16
2019-06-26T03:44:35.902Z,28.64
2019-06-26T03:47:02.904Z,28.41
2019-06-26T03:49:29.491Z,28.64
2019-06-26T03:51:56.179Z,28.71
2019-06-26T03:54:25.491Z,28.70
2019-06-26T03:56:52.152Z,28.83
2019-06-26T03:59:18.784Z,28.48
2019-06-26T04:01:45.473Z,29.04
2019-06-26T04:04:12.079Z,29.01
2019-06-26T04:06:44.439Z,29.20
2019-06-26T04:09:11.346Z,29.34
2019-06-26T04:11:40.359Z,29.59
2019-06-26T04:14:06.998Z,29.53
2019-06-26T04:16:33.905Z,29.30
2019-06-26T04:19:00.508Z,28.89
2019-06-26T04:21:27.145Z,28.95
2019-06-26T04:23:53.813Z,29.23
2019-06-26T04:26:20.364Z,29.48
2019-06-26T04:28:46.923Z,29.57
2019-06-26T04:31:16.581Z,29.47
2019-06-26T04:33:43.137Z,29.62
2019-06-26T04:36:11.015Z,29.48
2019-06-26T04:38:37.661Z,29.68
2019-06-26T04:41:15.334Z,30.30
2019-06-26T04:43:44.169Z,30.59
2019-06-26T04:46:11.267Z,30.36
2019-06-26T04:48:38.091Z,30.45
2019-06-26T04:51:04.697Z,30.42
2019-06-26T04:53:33.985Z,30.65
2019-06-26T04:56:00.869Z,31.12
2019-06-26T04:58:27.548Z,32.05
2019-06-26T05:00:54.220Z,31.98
2019-06-26T05:03:20.812Z,32.14
2019-06-26T05:05:47.611Z,32.07
2019-06-26T05:08:14.275Z,32.80
2019-06-26T05:10:40.864Z,33.37
2019-06-26T05:13:07.435Z,33.16
2019-06-26T05:15:34.059Z,33.23
2019-06-26T05:18:00.694Z,33.47
2019-06-26T05:20:27.242Z,32.95
2019-06-26T05:22:53.821Z,33.62
2019-06-26T05:25:21.404Z,33.85
2019-06-26T05:27:48.284Z,33.37
2019-06-26T05:30:14.961Z,32.76
2019-06-26T05:32:41.542Z,32.81
2019-06-26T05:35:08.461Z,33.17
2019-06-26T05:37:35.067Z,33.26
2019-06-26T05:40:01.912Z,33.19
2019-06-26T05:42:28.585Z,32.81
2019-06-26T05:44:55.376Z,33.38
2019-06-26T05:47:22.318Z,34.01
2019-06-26T05:49:48.898Z,34.23
2019-06-26T05:52:16.735Z,33.57
2019-06-26T05:54:43.649Z,33.88
2019-06-26T05:57:10.750Z,33.81
2019-06-26T05:59:37.712Z,34.83
2019-06-26T06:02:04.362Z,34.93
2019-06-26T06:04:31.055Z,34.99
2019-06-26T06:06:57.631Z,34.55
2019-06-26T06:09:24.328Z,34.58
2019-06-26T06:11:54.982Z,35.94
2019-06-26T06:14:21.541Z,34.95
2019-06-26T06:16:48.255Z,34.80
2019-06-26T06:19:15.680Z,34.87
2019-06-26T06:21:42.498Z,33.61
2019-06-26T06:24:09.168Z,33.71
2019-06-26T06:26:36.097Z,34.05
2019-06-26T06:29:02.894Z,34.03
2019-06-26T06:31:31.831Z,34.54
2019-06-26T06:33:58.411Z,35.10
2019-06-26T06:36:25.155Z,35.61
2019-06-26T06:38:51.782Z,35.29
2019-06-26T06:41:18.358Z,35.33
2019-06-26T06:43:44.991Z,36.56
2019-06-26T06:46:11.820Z,35.81
2019-06-26T06:48:38.545Z,36.57
2019-06-26T06:51:06.466Z,36.56
2019-06-26T06:53:33.107Z,37.16
2019-06-26T06:56:00.149Z,38.51
2019-06-26T06:58:30.075Z,38.88
2019-06-26T07:00:55.454Z,38.07
2019-06-26T07:03:22.045Z,37.98
2019-06-26T07:05:48.730Z,39.56
2019-06-26T07:08:15.410Z,40.54
2019-06-26T07:10:42.065Z,38.63
2019-06-26T07:13:08.766Z,38.64
2019-06-26T07:15:35.472Z,39.68
2019-06-26T07:20:37.953Z,39.72
2019-06-26T07:23:04.562Z,40.24
2019-06-26T07:25:34.449Z,38.73
2019-06-26T07:28:02.281Z,40.09
2019-06-26T07:30:28.885Z,39.42
2019-06-26T07:32:55.571Z,39.47
2019-06-26T07:35:22.362Z,40.75
2019-06-26T07:37:48.970Z,40.75
2019-06-26T07:40:15.986Z,42.52
2019-06-26T07:42:42.834Z,40.53
2019-06-26T07:45:10.084Z,42.46
2019-06-26T07:47:43.085Z,41.77
2019-06-26T07:50:05.969Z,42.08
2019-06-26T07:52:32.570Z,42.66
2019-06-26T07:54:59.367Z,42.80
2019-06-26T07:57:26.391Z,41.62
2019-06-26T07:59:53.015Z,42.51
2019-06-26T08:02:19.681Z,43.65
2019-06-26T08:04:46.416Z,40.59
2019-06-26T08:07:13.259Z,41.52
2019-06-26T08:09:39.882Z,41.90
2019-06-26T08:12:06.459Z,40.37
2019-06-26T08:14:33.427Z,40.43
2019-06-26T08:17:00.037Z,41.56
2019-06-26T08:19:26.889Z,40.99
2019-06-26T08:21:53.626Z,42.07
2019-06-26T08:24:20.385Z,40.75
2019-06-26T08:26:46.976Z,41.70
2019-06-26T08:29:13.541Z,41.59
2019-06-26T08:31:40.386Z,41.05
2019-06-26T08:34:06.968Z,42.27
2019-06-26T08:36:33.560Z,42.30
2019-06-26T08:39:00.308Z,43.59
2019-06-26T08:41:26.932Z,45.31
2019-06-26T08:43:55.319Z,44.01
2019-06-26T08:46:22.006Z,45.48
2019-06-26T08:48:51.849Z,44.74
2019-06-26T08:51:17.546Z,43.48
2019-06-26T08:53:44.149Z,43.75
2019-06-26T08:56:10.892Z,44.71
2019-06-26T08:58:37.606Z,45.38
2019-06-26T09:01:04.422Z,44.46
2019-06-26T09:03:30.993Z,44.63
2019-06-26T09:05:58.006Z,43.07
2019-06-26T09:08:24.811Z,43.91
2019-06-26T09:10:52.460Z,45.01
2019-06-26T09:13:19.055Z,42.60
2019-06-26T09:15:49.959Z,42.98
2019-06-26T09:18:14.671Z,42.94
2019-06-26T09:20:41.368Z,42.21
2019-06-26T09:23:08.241Z,42.92
2019-06-26T09:25:34.925Z,44.42
2019-06-26T09:28:01.920Z,42.82
2019-06-26T09:30:29.506Z,43.96
2019-06-26T09:32:56.082Z,44.93
2019-06-26T09:35:22.669Z,43.08
2019-06-26T09:37:49.249Z,45.88
2019-06-26T09:40:16.194Z,43.00
2019-06-26T09:42:42.875Z,45.00
2019-06-26T09:45:09.608Z,45.36
2019-06-26T09:47:36.222Z,42.65
2019-06-26T09:50:03.402Z,44.72
2019-06-26T09:52:30.204Z,44.24
2019-06-26T09:54:56.833Z,41.67
2019-06-26T09:57:23.562Z,40.61
2019-06-26T09:59:50.218Z,42.14
2019-06-26T10:02:16.958Z,43.97
2019-06-26T10:04:43.703Z,44.38
2019-06-26T10:07:10.329Z,42.78
2019-06-26T10:09:36.980Z,42.87
2019-06-26T10:12:03.922Z,43.80
2019-06-26T10:14:46.489Z,41.73
2019-06-26T10:16:59.350Z,44.07
2019-06-26T10:19:26.175Z,41.98
2019-06-26T10:21:52.824Z,42.87
2019-06-26T10:24:19.543Z,43.56
2019-06-26T10:26:46.339Z,45.48
2019-06-26T10:29:12.901Z,43.64
2019-06-26T10:31:39.602Z,44.03
2019-06-26T10:34:09.805Z,46.20
2019-06-26T10:36:34.972Z,44.69
2019-06-26T10:39:01.661Z,43.77
2019-06-26T10:41:30.229Z,43.92
2019-06-26T10:43:56.806Z,45.99
2019-06-26T10:46:23.395Z,43.54
2019-06-26T10:48:50.025Z,43.96
2019-06-26T10:51:16.704Z,43.75
2019-06-26T10:53:43.319Z,44.10
2019-06-26T10:56:10.010Z,44.02
2019-06-26T10:58:36.685Z,43.59
2019-06-26T11:01:03.523Z,45.61
2019-06-26T11:03:30.763Z,43.56
2019-06-26T11:05:57.397Z,44.33
2019-06-26T11:08:23.975Z,44.32
2019-06-26T11:10:50.638Z,41.86
2019-06-26T11:13:17.583Z,44.02
2019-06-26T11:15:44.167Z,44.94
2019-06-26T11:18:10.767Z,45.71
2019-06-26T11:20:38.376Z,44.25
2019-06-26T11:23:05.361Z,42.41
2019-06-26T11:25:32.050Z,43.26
2019-06-26T11:27:58.682Z,44.73
2019-06-26T11:30:25.647Z,46.40
2019-06-26T11:32:52.335Z,43.65
2019-06-26T11:35:19.257Z,44.86
2019-06-26T11:37:45.953Z,43.00
2019-06-26T11:40:13.106Z,44.69
2019-06-26T11:42:39.692Z,44.38
2019-06-26T11:45:06.645Z,45.57
2019-06-26T11:47:34.467Z,44.25
2019-06-26T11:50:01.483Z,44.38
2019-06-26T11:52:28.215Z,42.77
2019-06-26T11:55:02.754Z,40.92
2019-06-26T11:57:23.935Z,41.43
2019-06-26T11:59:50.535Z,41.83
2019-06-26T12:02:17.317Z,43.67
2019-06-26T12:04:45.252Z,42.11
2019-06-26T12:07:12.291Z,40.55
2019-06-26T12:09:40.128Z,43.81
2019-06-26T12:12:07.061Z,44.30
2019-06-26T12:14:33.818Z,44.45
2019-06-26T12:17:00.437Z,41.18
2019-06-26T12:19:27.045Z,41.33
2019-06-26T12:21:53.711Z,41.55
2019-06-26T12:24:20.441Z,41.68
2019-06-26T12:26:47.068Z,41.62
2019-06-26T12:29:13.772Z,40.88
2019-06-26T12:31:40.841Z,41.48
2019-06-26T12:34:07.484Z,40.98
2019-06-26T12:36:34.145Z,40.34
2019-06-26T12:39:00.762Z,41.10
2019-06-26T12:41:27.377Z,42.34
2019-06-26T12:43:54.022Z,40.56
2019-06-26T12:46:21.578Z,40.23
2019-06-26T12:48:48.261Z,39.73
2019-06-26T12:51:15.092Z,37.46
2019-06-26T12:53:41.842Z,38.35
2019-06-26T12:56:08.536Z,39.70
2019-06-26T12:58:35.266Z,39.81
2019-06-26T13:01:03.104Z,39.73
2019-06-26T13:03:29.783Z,41.05
2019-06-26T13:05:56.446Z,39.98
2019-06-26T13:08:23.027Z,40.50
2019-06-26T13:10:50.588Z,40.10
2019-06-26T13:13:17.496Z,40.27
2019-06-26T13:15:44.065Z,39.52
2019-06-26T13:18:10.658Z,38.90
2019-06-26T13:20:51.690Z,38.90
2019-06-26T13:23:05.879Z,39.44
2019-06-26T13:25:32.531Z,37.41
2019-06-26T13:27:59.166Z,38.44
2019-06-26T13:30:33.438Z,40.23
2019-06-26T13:33:01.151Z,39.44
2019-06-26T13:35:28.092Z,38.57
2019-06-26T13:37:54.871Z,37.81
2019-06-26T13:40:21.448Z,36.56
2019-06-26T13:42:48.081Z,35.62
2019-06-26T13:45:15.292Z,36.52
2019-06-26T13:47:41.951Z,36.92
2019-06-26T13:50:08.628Z,35.95
2019-06-26T13:52:35.271Z,35.86
2019-06-26T13:55:01.945Z,36.05
2019-06-26T13:57:28.873Z,35.63
2019-06-26T13:59:55.835Z,35.48
2019-06-26T14:02:22.522Z,34.78
2019-06-26T14:04:49.262Z,34.40
2019-06-26T14:07:16.021Z,34.75
2019-06-26T14:09:42.639Z,34.60
2019-06-26T14:12:09.527Z,33.50
2019-06-26T14:14:52.535Z,33.98
2019-06-26T14:17:04.885Z,33.55
2019-06-26T14:19:31.691Z,33.14
2019-06-26T14:21:58.631Z,32.79
2019-06-26T14:24:25.240Z,33.30
2019-06-26T14:26:51.890Z,33.38
2019-06-26T14:29:21.363Z,33.77
2019-06-26T14:31:46.960Z,34.78
2019-06-26T14:34:13.607Z,32.92
2019-06-26T14:36:40.176Z,32.86
2019-06-26T14:39:07.055Z,33.29
2019-06-26T14:41:34.112Z,31.86
2019-06-26T14:44:00.931Z,32.71
2019-06-26T14:46:29.801Z,33.10
2019-06-26T14:48:56.400Z,33.26
2019-06-26T14:51:23.025Z,32.89
2019-06-26T14:53:49.672Z,33.16
2019-06-26T14:56:16.274Z,32.52
2019-06-26T14:58:43.892Z,32.14
2019-06-26T15:01:10.480Z,30.90
2019-06-26T15:03:37.266Z,31.26
2019-06-26T15:06:15.745Z,31.54
2019-06-26T15:08:32.536Z,32.21
2019-06-26T15:10:59.122Z,32.25
2019-06-26T15:13:25.891Z,31.90
2019-06-26T15:15:54.731Z,32.34
2019-06-26T15:18:21.036Z,30.98
2019-06-26T15:20:47.976Z,30.24
2019-06-26T15:23:14.782Z,31.10
2019-06-26T15:25:41.350Z,31.45
2019-06-26T15:28:10.454Z,31.44
2019-06-26T15:30:37.159Z,31.88
2019-06-26T15:33:03.937Z,31.51
2019-06-26T15:35:30.966Z,31.82
2019-06-26T15:37:57.578Z,31.15
2019-06-26T15:40:24.318Z,32.26
2019-06-26T15:42:50.979Z,31.52
2019-06-26T15:45:20.644Z,30.96
2019-06-26T15:47:46.441Z,32.15
2019-06-26T15:50:15.257Z,32.11
2019-06-26T15:52:41.923Z,31.00
2019-06-26T15:55:09.933Z,32.32
2019-06-26T15:57:36.587Z,32.01
2019-06-26T16:00:04.445Z,31.17
2019-06-26T16:02:31.145Z,31.95
2019-06-26T16:04:57.804Z,31.68
2019-06-26T16:07:24.391Z,31.67
2019-06-26T16:09:50.978Z,31.85
2019-06-26T16:12:17.595Z,30.99
2019-06-26T16:14:45.876Z,30.14
2019-06-26T16:17:25.644Z,30.06
2019-06-26T16:19:52.262Z,30.79
2019-06-26T16:22:31.764Z,30.75
2019-06-26T16:24:47.298Z,30.65
2019-06-26T16:27:13.928Z,30.27
2019-06-26T16:29:40.825Z,29.56
2019-06-26T16:32:07.418Z,29.59
2019-06-26T16:34:34.248Z,28.78
2019-06-26T16:37:00.852Z,28.97
2019-06-26T16:39:27.427Z,29.38
2019-06-26T16:41:53.993Z,30.46
2019-06-26T16:44:20.559Z,29.19
2019-06-26T16:46:47.229Z,29.19
2019-06-26T16:49:13.866Z,28.88
2019-06-26T16:51:40.598Z,28.71
2019-06-26T16:54:07.296Z,28.13
2019-06-26T16:56:36.341Z,28.69
2019-06-26T16:59:03.139Z,28.71
2019-06-26T17:01:29.737Z,29.12
2019-06-26T17:03:57.408Z,29.34
2019-06-26T17:06:24.188Z,29.06
2019-06-26T17:08:50.788Z,29.04
2019-06-26T17:11:17.618Z,28.91
2019-06-26T17:13:44.543Z,28.52
2019-06-26T17:16:11.228Z,29.04
2019-06-26T17:18:37.816Z,27.80
2019-06-26T17:21:05.787Z,28.90
2019-06-26T17:23:32.673Z,28.59
2019-06-26T17:25:59.453Z,26.88
2019-06-26T17:28:26.400Z,27.30
2019-06-26T17:30:53.150Z,27.39
2019-06-26T17:33:19.791Z,27.24
2019-06-26T17:35:46.413Z,26.70
2019-06-26T17:38:12.982Z,27.74
2019-06-26T17:40:39.926Z,28.06
2019-06-26T17:43:12.293Z,28.00
2019-06-26T17:45:35.235Z,27.22
2019-06-26T17:48:01.871Z,27.27
2019-06-26T17:50:28.795Z,26.70
2019-06-26T17:52:55.611Z,26.25
2019-06-26T17:55:22.373Z,25.73
2019-06-26T17:57:48.934Z,25.36
2019-06-26T18:00:17.870Z,25.52
2019-06-26T18:02:44.863Z,25.16
2019-06-26T18:05:11.737Z,24.65
2019-06-26T18:07:38.325Z,25.04
2019-06-26T18:10:05.124Z,25.50
2019-06-26T18:12:31.971Z,24.89
2019-06-26T18:15:00.604Z,24.47
2019-06-26T18:17:27.170Z,23.54
2019-06-26T18:19:54.153Z,23.65
2019-06-26T18:22:20.730Z,24.08
2019-06-26T18:24:47.293Z,24.36
2019-06-26T18:27:14.098Z,24.55
2019-06-26T18:29:40.794Z,24.26
2019-06-26T18:32:07.911Z,24.19
2019-06-26T18:34:34.513Z,23.79
2019-06-26T18:37:01.102Z,23.66
2019-06-26T18:39:27.942Z,23.37
2019-06-26T18:41:54.915Z,23.27
2019-06-26T18:44:21.496Z,23.51
2019-06-26T18:46:48.090Z,24.04
2019-06-26T18:49:14.650Z,23.87
2019-06-26T18:51:41.276Z,23.25
2019-06-26T18:54:08.120Z,23.00
2019-06-26T18:56:34.687Z,23.32
2019-06-26T18:59:01.597Z,23.78
2019-06-26T19:01:29.169Z,23.23
2019-06-26T19:03:55.793Z,24.18
2019-06-26T19:06:22.686Z,23.39
2019-06-26T19:08:49.362Z,24.05
2019-06-26T19:11:16.002Z,24.56
2019-06-26T19:13:42.672Z,23.37
2019-06-26T19:16:09.406Z,23.24
2019-06-26T19:18:36.305Z,22.83
2019-06-26T19:21:03.106Z,23.12
2019-06-26T19:23:29.788Z,23.76
2019-06-26T19:25:56.358Z,22.82
2019-06-26T19:28:23.319Z,23.24
2019-06-26T19:30:50.053Z,22.33
2019-06-26T19:33:16.732Z,22.51
2019-06-26T19:35:43.487Z,23.14
2019-06-26T19:38:10.509Z,23.54
2019-06-26T19:40:39.583Z,23.07
2019-06-26T19:43:06.227Z,23.95
2019-06-26T19:45:32.926Z,22.89
2019-06-26T19:47:59.476Z,23.08
2019-06-26T19:50:27.051Z,23.23
2019-06-26T19:52:53.670Z,22.09
2019-06-26T19:55:20.273Z,22.73
2019-06-26T19:57:47.302Z,22.41
2019-06-26T20:00:13.993Z,23.21
2019-06-26T20:02:40.758Z,22.97
2019-06-26T20:05:07.911Z,23.05
2019-06-26T20:07:36.393Z,23.00
2019-06-26T20:10:03.376Z,22.84
2019-06-26T20:12:30.123Z,22.76
2019-06-26T20:14:56.711Z,22.52
2019-06-26T20:17:23.318Z,21.54
2019-06-26T20:19:50.051Z,22.39
2019-06-26T20:22:16.620Z,21.75
2019-06-26T20:24:44.779Z,21.57
2019-06-26T20:27:11.621Z,21.46
2019-06-26T20:29:38.285Z,21.48
2019-06-26T20:32:04.903Z,21.04
2019-06-26T20:34:31.529Z,21.61
2019-06-26T20:36:58.144Z,21.63
2019-06-26T20:39:25.050Z,21.29
2019-06-26T20:41:51.728Z,21.29
2019-06-26T20:44:18.362Z,22.70
2019-06-26T20:46:44.943Z,22.37
2019-06-26T20:49:11.770Z,22.36
2019-06-26T20:51:38.402Z,22.16
2019-06-26T20:54:04.994Z,22.41
2019-06-26T20:56:31.659Z,22.10
2019-06-26T20:58:58.872Z,21.44
2019-06-26T21:01:26.536Z,21.43
2019-06-26T21:03:53.379Z,20.63
2019-06-26T21:06:19.926Z,20.89
2019-06-26T21:08:46.528Z,20.73
2019-06-26T21:11:15.739Z,20.64
2019-06-26T21:13:41.586Z,21.03
2019-06-26T21:16:08.268Z,20.79
2019-06-26T21:18:34.858Z,21.10
2019-06-26T21:21:01.621Z,20.36
2019-06-26T21:23:28.177Z,20.76
2019-06-26T21:25:54.782Z,21.78
2019-06-26T21:28:21.509Z,20.73
2019-06-26T21:30:48.117Z,22.11
2019-06-26T21:33:14.672Z,22.34
2019-06-26T21:35:41.314Z,21.36
2019-06-26T21:38:07.919Z,21.83
2019-06-26T21:40:34.856Z,22.29
2019-06-26T21:43:01.472Z,21.64
2019-06-26T21:45:28.062Z,21.66
2019-06-26T21:47:54.729Z,20.88
2019-06-26T21:50:21.335Z,21.55
2019-06-26T21:52:48.745Z,21.52
2019-06-26T21:55:15.341Z,20.75
2019-06-26T21:58:00.834Z,21.07
2019-06-26T22:00:46.400Z,20.44
2019-06-26T22:03:31.541Z,20.43
2019-06-26T22:06:00.236Z,20.62
2019-06-26T22:08:37.774Z,19.97
2019-06-26T22:11:06.056Z,20.15
2019-06-26T22:13:32.812Z,20.09
2019-06-26T22:15:59.814Z,20.54
2019-06-26T22:18:26.407Z,20.28
2019-06-26T22:20:53.017Z,19.75
2019-06-26T22:23:19.604Z,20.01
2019-06-26T22:25:50.841Z,19.93
2019-06-26T22:28:14.899Z,19.91
2019-06-26T22:30:42.319Z,20.30
2019-06-26T22:33:09.166Z,20.82
2019-06-26T22:35:36.136Z,20.23
2019-06-26T22:38:02.838Z,21.02
2019-06-26T22:40:29.466Z,21.28
2019-06-26T22:42:56.202Z,20.87
2019-06-26T22:45:22.786Z,20.53
2019-06-26T22:47:49.345Z,20.31
2019-06-26T22:50:16.035Z,20.19
2019-06-26T22:52:42.684Z,19.89
2019-06-26T22:55:09.431Z,20.02
2019-06-26T22:57:36.020Z,20.86
2019-06-26T23:00:03.361Z,20.57
2019-06-26T23:02:31.346Z,20.33
2019-06-26T23:04:58.184Z,20.92
2019-06-26T23:07:25.157Z,20.43
2019-06-26T23:09:51.797Z,21.05
2019-06-26T23:12:19.601Z,20.43
2019-06-26T23:14:46.392Z,20.56
2019-06-26T23:17:12.989Z,20.22
2019-06-26T23:19:39.662Z,19.90
2019-06-26T23:22:06.696Z,19.86
2019-06-26T23:24:33.389Z,19.95
2019-06-26T23:27:00.490Z,19.27
2019-06-26T23:29:27.236Z,20.38
2019-06-26T23:31:53.853Z,20.40
2019-06-26T23:34:21.547Z,20.02
2019-06-26T23:36:48.121Z,19.60
2019-06-26T23:39:14.956Z,20.05
2019-06-26T23:41:41.761Z,20.37
2019-06-26T23:44:08.348Z,20.32
2019-06-26T23:46:35.257Z,19.50
2019-06-26T23:49:01.815Z,19.95
2019-06-26T23:51:28.445Z,19.77
2019-06-26T23:53:55.018Z,19.27
2019-06-26T23:56:21.629Z,19.04
2019-06-26T23:58:48.321Z,18.28
